createdAt,value
2022-12-08T00:03:30.388Z,4.00
2022-12-08T00:07:59.322Z,4.10
2022-12-08T00:12:10.468Z,4.10
2022-12-08T00:16:19.505Z,4.10
2022-12-08T00:20:28.651Z,4.10
2022-12-08T00:24:41.587Z,4.10
2022-12-08T00:28:50.685Z,4.10
2022-12-08T00:32:59.946Z,4.20
2022-12-08T00:37:09.304Z,4.10
2022-12-08T00:41:44.885Z,4.00
2022-12-08T00:45:54.108Z,4.00
2022-12-08T00:50:04.452Z,4.10
2022-12-08T00:54:14.054Z,4.10
2022-12-08T00:58:24.644Z,4.00
2022-12-08T01:02:34.772Z,4.00
2022-12-08T01:06:44.444Z,4.00
2022-12-08T01:10:53.685Z,4.10
2022-12-08T01:15:04.486Z,4.20
2022-12-08T01:19:15.143Z,4.20
2022-12-08T01:23:24.865Z,4.20
2022-12-08T01:27:34.024Z,4.10
2022-12-08T01:31:44.926Z,4.20
2022-12-08T01:35:55.726Z,4.20
2022-12-08T01:40:05.682Z,4.20
2022-12-08T01:44:55.064Z,4.20
2022-12-08T01:49:09.504Z,4.00
2022-12-08T01:53:21.729Z,4.00
2022-12-08T01:57:35.906Z,4.00
2022-12-08T02:01:45.316Z,3.90
2022-12-08T02:05:56.306Z,3.70
2022-12-08T02:10:06.333Z,3.70
2022-12-08T02:14:16.443Z,3.70
2022-12-08T02:18:41.115Z,3.80
2022-12-08T02:23:02.224Z,3.80
2022-12-08T02:27:37.709Z,3.80
2022-12-08T02:32:02.447Z,3.70
2022-12-08T02:36:22.267Z,3.70
2022-12-08T02:40:36.487Z,3.80
2022-12-08T02:44:50.366Z,3.50
2022-12-08T02:49:00.788Z,3.50
2022-12-08T02:57:30.688Z,3.40
2022-12-08T03:02:14.454Z,3.30
2022-12-08T03:06:32.432Z,3.30
2022-12-08T03:10:47.068Z,3.40
2022-12-08T03:14:59.234Z,3.30
2022-12-08T03:19:15.430Z,3.30
2022-12-08T03:23:26.208Z,3.30
2022-12-08T03:27:37.057Z,3.20
2022-12-08T03:31:52.469Z,3.20
2022-12-08T03:36:02.475Z,3.10
2022-12-08T03:40:16.052Z,3.10
2022-12-08T03:44:26.771Z,3.20
2022-12-08T03:48:35.985Z,3.10
2022-12-08T03:52:45.270Z,3.10
2022-12-08T03:56:54.467Z,3.10
2022-12-08T04:01:05.236Z,3.10
2022-12-08T04:05:14.454Z,3.20
2022-12-08T04:09:25.151Z,3.20
2022-12-08T04:13:34.450Z,3.20
2022-12-08T04:17:45.152Z,3.20
2022-12-08T04:21:54.392Z,3.10
2022-12-08T04:26:04.448Z,3.00
2022-12-08T04:30:14.472Z,3.10
2022-12-08T04:34:25.349Z,3.20
2022-12-08T04:38:35.289Z,3.20
2022-12-08T04:42:45.668Z,3.20
2022-12-08T04:46:54.875Z,3.10
2022-12-08T04:51:05.888Z,3.10
2022-12-08T04:55:16.113Z,3.10
2022-12-08T04:59:25.311Z,3.20
2022-12-08T05:03:34.531Z,3.30
2022-12-08T05:07:47.441Z,3.20
2022-12-08T05:11:56.632Z,3.00
2022-12-08T05:16:07.783Z,3.00
2022-12-08T05:20:17.153Z,3.10
2022-12-08T05:24:27.991Z,3.10
2022-12-08T05:28:42.323Z,3.10
2022-12-08T05:32:52.370Z,3.10
2022-12-08T05:37:01.633Z,3.10
2022-12-08T05:41:15.528Z,3.10
2022-12-08T05:45:24.716Z,3.10
2022-12-08T05:49:34.028Z,3.20
2022-12-08T05:53:43.211Z,3.20
2022-12-08T05:57:53.849Z,3.30
2022-12-08T06:02:03.213Z,3.30
2022-12-08T06:06:12.568Z,3.40
2022-12-08T06:10:22.471Z,3.50
2022-12-08T06:14:33.288Z,3.60
2022-12-08T06:18:43.869Z,3.50
2022-12-08T06:22:53.089Z,3.70
2022-12-08T06:27:02.151Z,3.50
2022-12-08T06:31:16.995Z,3.50
2022-12-08T06:35:26.189Z,3.60
2022-12-08T06:39:35.597Z,3.70
2022-12-08T06:43:45.289Z,3.80
2022-12-08T06:47:56.791Z,3.80
2022-12-08T06:52:06.369Z,3.70
2022-12-08T06:56:17.269Z,3.60
2022-12-08T07:00:26.665Z,3.70
2022-12-08T07:04:37.309Z,3.70
2022-12-08T07:08:46.406Z,3.80
2022-12-08T07:12:55.691Z,3.80
2022-12-08T07:17:05.627Z,3.80
2022-12-08T07:21:17.352Z,3.80
2022-12-08T07:25:27.163Z,3.80
2022-12-08T07:29:36.328Z,3.90
2022-12-08T07:33:47.961Z,3.90
2022-12-08T07:37:58.851Z,3.90
2022-12-08T07:42:08.008Z,3.90
2022-12-08T07:46:18.496Z,3.90
2022-12-08T07:50:27.800Z,3.90
2022-12-08T07:54:44.788Z,3.90
2022-12-08T07:58:55.130Z,4.00
2022-12-08T08:03:04.362Z,4.00
2022-12-08T08:07:13.612Z,4.10
2022-12-08T08:11:24.730Z,4.10
2022-12-08T08:15:33.999Z,4.10
2022-12-08T08:19:43.371Z,4.10
2022-12-08T08:23:52.551Z,4.10
2022-12-08T08:28:03.270Z,4.10
2022-12-08T08:32:12.792Z,4.00
2022-12-08T08:36:22.811Z,4.00
2022-12-08T08:40:32.268Z,3.90
2022-12-08T08:44:43.150Z,4.00
2022-12-08T08:48:52.248Z,4.10
2022-12-08T08:53:01.391Z,4.20
2022-12-08T08:57:11.172Z,4.30
2022-12-08T09:01:25.349Z,4.40
2022-12-08T09:05:34.690Z,4.50
2022-12-08T09:09:44.109Z,4.60
2022-12-08T09:13:53.855Z,4.80
2022-12-08T09:18:07.073Z,4.90
2022-12-08T09:22:17.650Z,5.10
2022-12-08T09:26:26.871Z,5.20
2022-12-08T09:30:36.129Z,5.30
2022-12-08T09:34:51.932Z,5.40
2022-12-08T09:39:01.329Z,5.30
2022-12-08T09:43:21.769Z,5.30
2022-12-08T09:47:36.311Z,5.30
2022-12-08T09:52:01.065Z,5.30
2022-12-08T09:56:16.191Z,5.20
2022-12-08T10:00:25.645Z,5.20
2022-12-08T10:04:38.314Z,5.20
2022-12-08T10:08:58.404Z,5.40
2022-12-08T10:13:19.826Z,5.60
2022-12-08T10:17:32.661Z,5.80
2022-12-08T10:21:42.573Z,6.10
2022-12-08T10:25:58.466Z,6.30
2022-12-08T10:30:13.506Z,6.40
2022-12-08T10:34:24.651Z,6.40
2022-12-08T10:38:35.666Z,6.70
2022-12-08T10:42:49.475Z,6.80
2022-12-08T10:46:58.667Z,7.10
2022-12-08T10:51:22.286Z,7.20
2022-12-08T10:55:41.083Z,7.30
2022-12-08T10:59:51.783Z,7.40
2022-12-08T11:04:04.527Z,7.30
2022-12-08T11:08:14.046Z,7.20
2022-12-08T11:12:24.566Z,7.20
2022-12-08T11:16:35.468Z,7.40
2022-12-08T11:20:44.964Z,7.40
2022-12-08T11:25:03.067Z,7.40
2022-12-08T11:29:17.685Z,7.50
2022-12-08T11:33:32.085Z,7.60
2022-12-08T11:37:43.481Z,7.70
2022-12-08T11:41:56.306Z,7.80
2022-12-08T11:46:24.768Z,7.90
2022-12-08T11:50:44.985Z,7.80
2022-12-08T11:55:00.006Z,7.90
2022-12-08T11:59:17.624Z,8.00
2022-12-08T12:03:34.026Z,8.20
2022-12-08T12:08:00.413Z,8.30
2022-12-08T12:12:16.123Z,8.30
2022-12-08T12:16:48.140Z,8.50
2022-12-08T12:21:01.464Z,8.50
2022-12-08T12:25:19.786Z,8.70
2022-12-08T12:29:31.760Z,8.80
2022-12-08T12:33:40.948Z,8.90
2022-12-08T12:37:51.146Z,8.90
2022-12-08T12:42:03.407Z,8.90
2022-12-08T12:46:54.869Z,8.90
2022-12-08T12:51:46.524Z,8.90
2022-12-08T12:55:58.025Z,9.20
2022-12-08T13:00:26.543Z,9.30
2022-12-08T13:04:39.203Z,9.30
2022-12-08T13:08:53.843Z,9.20
2022-12-08T13:13:19.605Z,8.90
2022-12-08T13:17:32.846Z,8.50
2022-12-08T13:21:42.405Z,8.30
2022-12-08T13:25:53.584Z,8.00
2022-12-08T13:30:40.195Z,7.90
2022-12-08T13:34:54.889Z,7.70
2022-12-08T13:39:04.803Z,7.60
2022-12-08T13:43:21.084Z,7.60
2022-12-08T13:47:34.979Z,7.50
2022-12-08T13:57:01.034Z,7.40
2022-12-08T14:01:00.305Z,7.30
2022-12-08T14:05:17.916Z,7.20
2022-12-08T14:09:34.024Z,7.20
2022-12-08T14:13:43.887Z,7.20
2022-12-08T14:17:58.264Z,7.10
2022-12-08T14:22:14.024Z,7.10
2022-12-08T14:26:25.947Z,7.10
2022-12-08T14:30:36.627Z,7.10
2022-12-08T14:34:45.844Z,7.10
2022-12-08T14:38:57.626Z,7.10
2022-12-08T14:43:18.751Z,7.10
2022-12-08T14:47:32.446Z,7.10
2022-12-08T14:51:42.546Z,7.00
2022-12-08T14:55:52.007Z,6.90
2022-12-08T15:00:11.569Z,6.90
2022-12-08T15:04:24.639Z,6.90
2022-12-08T15:08:35.123Z,6.90
2022-12-08T15:13:03.842Z,6.90
2022-12-08T15:21:48.145Z,6.80
2022-12-08T15:25:58.006Z,6.60
2022-12-08T15:30:08.570Z,6.40
2022-12-08T15:34:17.965Z,6.30
2022-12-08T15:38:30.266Z,6.20
2022-12-08T15:42:39.363Z,6.20
2022-12-08T15:46:48.412Z,6.10
2022-12-08T15:50:58.143Z,6.10
2022-12-08T15:55:09.464Z,6.00
2022-12-08T15:59:21.044Z,6.00
2022-12-08T16:08:07.749Z,5.80
2022-12-08T16:17:16.729Z,5.50
2022-12-08T16:30:27.843Z,5.10
2022-12-08T16:34:36.784Z,4.90
2022-12-08T16:38:45.888Z,4.70
2022-12-08T16:42:55.027Z,4.60
2022-12-08T16:47:10.683Z,4.50
2022-12-08T16:51:26.505Z,4.50
2022-12-08T16:55:37.006Z,4.50
2022-12-08T16:59:46.206Z,4.40
2022-12-08T17:04:22.939Z,4.30
2022-12-08T17:08:26.029Z,4.10
2022-12-08T17:12:36.008Z,4.10
2022-12-08T17:16:46.103Z,4.10
2022-12-08T17:20:56.865Z,4.10
2022-12-08T17:25:08.425Z,3.90
2022-12-08T17:29:19.023Z,3.80
2022-12-08T17:33:28.424Z,3.80
2022-12-08T17:37:38.944Z,3.80
2022-12-08T17:41:49.226Z,3.80
2022-12-08T17:45:58.349Z,3.80
2022-12-08T17:50:09.033Z,3.70
2022-12-08T17:54:20.790Z,3.60
2022-12-08T17:58:29.986Z,3.40
2022-12-08T18:02:40.144Z,3.40
2022-12-08T18:06:49.485Z,3.30
2022-12-08T18:10:59.965Z,3.30
2022-12-08T18:15:10.905Z,3.10
2022-12-08T18:19:20.010Z,3.10
2022-12-08T18:23:29.064Z,3.10
2022-12-08T18:27:43.207Z,3.00
2022-12-08T18:31:54.051Z,3.00
2022-12-08T18:36:03.386Z,3.00
2022-12-08T18:40:14.726Z,2.80
2022-12-08T18:44:25.312Z,2.80
2022-12-08T18:48:34.344Z,2.90
2022-12-08T18:52:43.543Z,2.90
2022-12-08T18:56:52.626Z,2.80
2022-12-08T19:01:03.276Z,2.70
2022-12-08T19:05:13.928Z,2.60
2022-12-08T19:09:23.108Z,2.60
2022-12-08T19:13:32.269Z,2.50
2022-12-08T19:17:42.766Z,2.50
2022-12-08T19:21:51.804Z,2.50
2022-12-08T19:26:00.844Z,2.50
2022-12-08T19:30:11.946Z,2.50
2022-12-08T19:34:22.525Z,2.50
2022-12-08T19:38:51.445Z,2.50
2022-12-08T19:43:18.155Z,2.40
2022-12-08T19:47:28.934Z,2.20
2022-12-08T19:51:40.124Z,2.10
2022-12-08T19:55:49.689Z,2.20
2022-12-08T19:59:58.663Z,2.30
2022-12-08T20:04:07.718Z,2.30
2022-12-08T20:08:18.687Z,2.30
2022-12-08T20:12:28.106Z,2.30
2022-12-08T20:16:37.678Z,2.30
2022-12-08T20:20:48.351Z,2.40
2022-12-08T20:25:01.012Z,2.30
2022-12-08T20:29:10.672Z,2.30
2022-12-08T20:33:20.938Z,2.30
2022-12-08T20:37:30.043Z,2.20
2022-12-08T20:41:40.519Z,2.20
2022-12-08T20:45:49.759Z,2.30
2022-12-08T20:49:58.846Z,2.30
2022-12-08T20:54:10.198Z,2.30
2022-12-08T20:58:20.877Z,2.30
2022-12-08T21:02:30.712Z,2.20
2022-12-08T21:06:40.259Z,2.10
2022-12-08T21:10:56.086Z,2.10
2022-12-08T21:15:08.716Z,2.10
2022-12-08T21:19:18.536Z,2.10
2022-12-08T21:23:27.819Z,2.00
2022-12-08T21:27:38.233Z,2.00
2022-12-08T21:31:49.149Z,2.00
2022-12-08T21:36:04.796Z,1.80
2022-12-08T21:40:15.035Z,1.70
2022-12-08T21:44:24.394Z,1.70
2022-12-08T21:48:35.061Z,1.70
2022-12-08T21:52:46.100Z,1.70
2022-12-08T21:56:55.548Z,1.70
2022-12-08T22:01:08.341Z,1.60
2022-12-08T22:05:19.285Z,1.40
2022-12-08T22:09:30.042Z,1.50
2022-12-08T22:13:40.879Z,1.50
2022-12-08T22:17:50.443Z,1.50
2022-12-08T22:22:01.190Z,1.30
2022-12-08T22:26:10.756Z,1.30
2022-12-08T22:30:19.934Z,1.30
2022-12-08T22:34:29.155Z,1.30
2022-12-08T22:38:40.794Z,1.40
2022-12-08T22:42:49.986Z,1.30
2022-12-08T22:46:59.309Z,1.30
2022-12-08T22:51:09.154Z,1.20
2022-12-08T22:55:19.996Z,1.30
2022-12-08T22:59:30.828Z,1.40
2022-12-08T23:03:40.220Z,1.40
2022-12-08T23:07:49.474Z,1.30
2022-12-08T23:12:00.378Z,1.30
2022-12-08T23:16:10.949Z,1.30
2022-12-08T23:20:20.450Z,1.30
2022-12-08T23:24:29.665Z,1.30
2022-12-08T23:28:40.617Z,1.20
2022-12-08T23:32:49.959Z,1.20
2022-12-08T23:36:59.206Z,1.30
2022-12-08T23:41:10.161Z,1.40
2022-12-08T23:45:21.197Z,1.30
2022-12-08T23:49:30.750Z,1.20
2022-12-08T23:53:40.648Z,1.10
2022-12-08T23:57:50.311Z,1.20
